Time;durP1;ratioP1;P1;durP2;ratioP2;P2;SDS_P1;SDS_P2;PMS_P1;PMS_P2;Temp;Humidity;BMP_temperature;BMP_pressure;BME280_temperature;BME280_humidity;BME280_pressure;Samples;Min_cycle;Max_cycle;Signal;HPM_P1;HPM_P2
2022/01/17 00:01:34;;;;;;;417.48;90.25;;;;;;;5.01;100.00;102752.78;4978193;28;20667;-78
2022/01/17 00:04:00;;;;;;;423.85;84.55;;;;;;;4.97;100.00;102757.41;4977438;28;20030;-78
2022/01/17 00:06:25;;;;;;;435.30;89.63;;;;;;;4.99;100.00;102762.78;4992606;28;20049;-77
2022/01/17 00:08:51;;;;;;;409.88;82.80;;;;;;;4.97;100.00;102771.84;4995047;28;20038;-78
2022/01/17 00:11:18;;;;;;;400.98;87.45;;;;;;;5.05;100.00;102782.53;4990942;28;20041;-78
2022/01/17 00:13:44;;;;;;;412.10;86.78;;;;;;;4.99;100.00;102784.50;4993616;28;20807;-78
2022/01/17 00:16:13;;;;;;;392.60;85.53;;;;;;;5.05;100.00;102782.53;4992735;28;20039;-77
2022/01/17 00:21:28;;;;;;;401.42;83.00;;;;;;;5.04;100.00;102786.16;4992223;28;20030;-78
2022/01/17 00:23:53;;;;;;;391.60;84.15;;;;;;;5.05;100.00;102787.97;4993285;28;20041;-77
2022/01/17 00:26:19;;;;;;;391.23;83.35;;;;;;;5.02;100.00;102788.03;4976692;28;20050;-78
2022/01/17 00:28:44;;;;;;;414.60;83.78;;;;;;;5.08;100.00;102793.31;5012062;28;20034;-78
2022/01/17 00:31:10;;;;;;;407.08;86.20;;;;;;;5.06;100.00;102794.28;4995462;28;20022;-77
2022/01/17 00:33:35;;;;;;;357.67;79.10;;;;;;;5.21;100.00;102799.31;4998113;28;20050;-77
2022/01/17 00:36:02;;;;;;;388.85;82.10;;;;;;;5.14;100.00;102784.09;4993190;28;20030;-78
2022/01/17 00:38:27;;;;;;;358.02;82.00;;;;;;;5.15;100.00;102775.03;4976747;28;20046;-78
2022/01/17 00:40:53;;;;;;;346.73;81.22;;;;;;;5.14;100.00;102765.97;4990105;28;20340;-78
2022/01/17 00:43:18;;;;;;;382.63;81.55;;;;;;;5.14;100.00;102770.53;4995260;28;20133;-78
2022/01/17 00:45:45;;;;;;;353.17;78.32;;;;;;;5.27;100.00;102788.28;5009153;28;20042;-78
2022/01/17 00:48:11;;;;;;;380.35;83.57;;;;;;;5.15;100.00;102794.94;4993102;28;20042;-78
2022/01/17 00:50:38;;;;;;;391.02;85.07;;;;;;;5.13;100.00;102791.38;4991922;28;20161;-77
2022/01/17 00:53:08;;;;;;;399.85;85.47;;;;;;;5.18;100.00;102796.66;4993792;28;20089;-77
2022/01/17 00:55:36;;;;;;;357.10;79.40;;;;;;;5.20;100.00;102788.47;4976224;28;20042;-78
2022/01/17 00:58:02;;;;;;;357.05;79.63;;;;;;;5.18;100.00;102788.50;4992157;28;20083;-78
2022/01/17 01:00:27;;;;;;;381.35;81.60;;;;;;;5.17;100.00;102784.03;4993173;28;20022;-78
2022/01/17 01:02:53;;;;;;;368.17;80.88;;;;;;;5.13;100.00;102780.50;4984388;28;20162;-78
2022/01/17 01:05:19;;;;;;;349.80;77.60;;;;;;;5.12;100.00;102794.13;4990391;28;20022;-77
2022/01/17 01:07:44;;;;;;;379.30;81.88;;;;;;;5.08;100.00;102785.16;4990083;28;20046;-77
2022/01/17 01:10:12;;;;;;;373.45;79.47;;;;;;;5.12;100.00;102808.59;4992531;28;20034;-77
2022/01/17 01:12:39;;;;;;;363.65;79.25;;;;;;;5.12;100.00;102815.84;4993840;28;20097;-77
2022/01/17 01:15:11;;;;;;;383.90;79.15;;;;;;;5.14;100.00;102798.56;4976076;28;20039;-78
2022/01/17 01:17:48;;;;;;;355.15;81.82;;;;;;;5.12;100.00;102802.28;4993362;28;20046;-78
2022/01/17 01:28:14;;;;;;;324.73;74.70;;;;;;;5.14;100.00;102803.13;5012494;28;20069;-78
2022/01/17 01:30:45;;;;;;;328.20;77.35;;;;;;;5.13;100.00;102793.16;5006768;28;20072;-77
2022/01/17 01:33:10;;;;;;;353.55;77.68;;;;;;;5.15;100.00;102794.94;5004362;28;20042;-77
2022/01/17 01:35:44;;;;;;;315.42;74.82;;;;;;;5.15;100.00;102785.91;4993292;28;20038;-77
2022/01/17 01:38:10;;;;;;;339.92;75.53;;;;;;;5.15;100.00;102794.06;4994660;28;20402;-78
2022/01/17 01:40:36;;;;;;;318.60;74.15;;;;;;;5.12;100.00;102795.00;4992511;28;20041;-77
2022/01/17 01:43:01;;;;;;;309.13;72.05;;;;;;;5.15;100.00;102803.06;5001315;28;20045;-77
2022/01/17 01:45:27;;;;;;;339.23;75.40;;;;;;;5.14;100.00;102814.84;5007464;28;20030;-77
2022/01/17 01:47:53;;;;;;;308.15;72.88;;;;;;;5.13;100.00;102804.03;4992974;28;20351;-77
2022/01/17 01:50:19;;;;;;;301.42;73.15;;;;;;;5.10;100.00;102813.16;4989149;28;20035;-77
2022/01/17 01:52:45;;;;;;;316.95;72.97;;;;;;;5.13;100.00;102814.91;5014211;28;20038;-77
2022/01/17 01:55:13;;;;;;;298.75;72.25;;;;;;;5.16;100.00;102822.97;5014400;28;20026;-77
2022/01/17 01:57:41;;;;;;;310.33;70.88;;;;;;;5.09;100.00;102816.78;4990204;28;20030;-77
2022/01/17 02:00:07;;;;;;;274.77;67.53;;;;;;;5.17;100.00;102818.44;4994146;28;20365;-77
2022/01/17 02:02:34;;;;;;;294.92;70.13;;;;;;;5.10;100.00;102806.81;5016641;28;20045;-77
2022/01/17 02:04:59;;;;;;;285.13;66.90;;;;;;;5.11;100.00;102803.19;4998273;28;20049;-77
2022/01/17 02:07:25;;;;;;;270.15;67.07;;;;;;;5.12;100.00;102807.69;4975599;28;20502;-77
2022/01/17 02:09:50;;;;;;;292.77;69.63;;;;;;;5.13;100.00;102813.09;4977544;28;20044;-77
2022/01/17 02:12:20;;;;;;;274.83;64.57;;;;;;;5.11;100.00;102812.22;4992070;28;20098;-77
2022/01/17 02:14:47;;;;;;;305.35;69.28;;;;;;;5.12;100.00;102816.72;4977192;28;20038;-77
2022/01/17 02:17:13;;;;;;;298.40;65.93;;;;;;;5.15;100.00;102826.63;4996331;28;20100;-77
2022/01/17 02:19:45;;;;;;;286.52;67.18;;;;;;;5.11;100.00;102817.66;5003719;28;20485;-78
2022/01/17 02:22:11;;;;;;;283.15;66.35;;;;;;;5.07;100.00;102823.22;5004586;28;20023;-77
2022/01/17 02:24:37;;;;;;;277.23;66.53;;;;;;;5.00;100.00;102819.75;4988970;28;20030;-78
2022/01/17 02:27:02;;;;;;;295.63;69.65;;;;;;;4.93;100.00;102823.53;4997104;28;20076;-77
2022/01/17 02:29:29;;;;;;;294.80;68.30;;;;;;;4.86;100.00;102825.50;4998227;28;20030;-77
2022/01/17 02:31:55;;;;;;;323.15;69.88;;;;;;;4.82;100.00;102812.94;4997408;28;20493;-77
2022/01/17 02:34:20;;;;;;;312.25;70.18;;;;;;;4.76;100.00;102805.81;5007155;28;20055;-78
2022/01/17 02:36:46;;;;;;;308.38;65.40;;;;;;;4.72;100.00;102811.34;4979732;28;20037;-77
2022/01/17 02:39:13;;;;;;;334.25;68.10;;;;;;;4.67;100.00;102807.84;4992548;28;20038;-77
2022/01/17 02:41:40;;;;;;;300.38;67.45;;;;;;;4.60;100.00;102821.53;5002568;28;20033;-78
2022/01/17 02:44:06;;;;;;;306.48;66.22;;;;;;;4.60;100.00;102834.22;4996447;28;20064;-78
2022/01/17 02:46:31;;;;;;;299.27;67.68;;;;;;;4.53;100.00;102817.19;4985197;28;20042;-78
2022/01/17 02:49:00;;;;;;;301.58;64.60;;;;;;;4.53;100.00;102824.44;4995368;28;20121;-78
2022/01/17 02:51:27;;;;;;;323.15;68.40;;;;;;;4.45;100.00;102818.31;4999167;28;20375;-78
2022/01/17 02:53:52;;;;;;;295.17;64.03;;;;;;;4.44;100.00;102814.66;4995886;28;20374;-78
2022/01/17 02:56:19;;;;;;;295.75;62.55;;;;;;;4.44;100.00;102803.81;4999755;28;20030;-78
2022/01/17 02:58:45;;;;;;;314.27;64.32;;;;;;;4.41;100.00;102814.72;5000735;28;20382;-77
2022/01/17 03:01:19;;;;;;;288.90;64.25;;;;;;;4.38;100.00;102812.13;5015889;28;20348;-78
2022/01/17 03:03:45;;;;;;;300.67;63.38;;;;;;;4.33;100.00;102805.88;4995887;28;20038;-78
2022/01/17 03:06:12;;;;;;;304.63;62.83;;;;;;;4.34;100.00;102803.13;4976809;28;20038;-77
2022/01/17 03:08:39;;;;;;;313.05;66.18;;;;;;;4.28;100.00;102797.88;4991978;28;20064;-78
2022/01/17 03:11:06;;;;;;;312.60;65.53;;;;;;;4.23;100.00;102792.53;5016958;28;20034;-78
2022/01/17 03:13:35;;;;;;;315.77;66.15;;;;;;;4.24;100.00;102791.59;4990728;28;20038;-77
2022/01/17 03:16:04;;;;;;;303.30;64.97;;;;;;;4.22;100.00;102793.44;4979757;28;20062;-78
2022/01/17 03:18:39;;;;;;;314.83;62.05;;;;;;;4.20;100.00;102797.13;4997084;28;20041;-77
2022/01/17 03:21:07;;;;;;;307.23;63.33;;;;;;;4.21;100.00;102801.59;5001848;28;20085;-78
2022/01/17 03:23:34;;;;;;;313.63;64.50;;;;;;;4.15;100.00;102801.72;4984684;28;20445;-78
2022/01/17 03:25:59;;;;;;;284.88;64.95;;;;;;;4.12;100.00;102794.56;5005404;28;20030;-78
2022/01/17 03:28:27;;;;;;;330.40;66.07;;;;;;;4.13;100.00;102801.78;5016647;28;20102;-78
2022/01/17 03:30:53;;;;;;;337.98;68.30;;;;;;;4.10;100.00;102812.69;4981907;28;20026;-78
2022/01/17 03:33:19;;;;;;;322.23;69.22;;;;;;;4.12;100.00;102802.69;4993078;28;20034;-78
2022/01/17 03:35:45;;;;;;;319.33;68.70;;;;;;;4.16;100.00;102809.84;5001874;28;20045;-77
2022/01/17 03:38:13;;;;;;;323.95;66.10;;;;;;;4.13;100.00;102812.63;5002267;28;20047;-77
2022/01/17 03:40:39;;;;;;;317.17;66.80;;;;;;;4.13;100.00;102811.72;4995778;28;20066;-77
2022/01/17 03:43:05;;;;;;;344.02;69.65;;;;;;;4.17;100.00;102818.88;4988031;28;20094;-77
2022/01/17 03:45:31;;;;;;;324.25;65.93;;;;;;;4.20;100.00;102816.13;5004345;28;20359;-77
2022/01/17 03:47:57;;;;;;;309.35;65.80;;;;;;;4.18;100.00;102832.41;4994210;28;20041;-77
2022/01/17 03:50:24;;;;;;;303.05;65.03;;;;;;;4.23;100.00;102825.06;4991541;28;20366;-77
2022/01/17 03:52:50;;;;;;;316.98;65.53;;;;;;;4.27;100.00;102825.00;4990693;28;20113;-77
2022/01/17 03:55:19;;;;;;;309.63;65.45;;;;;;;4.24;100.00;102824.13;4997649;28;20377;-77
2022/01/17 03:57:44;;;;;;;311.75;68.20;;;;;;;4.24;100.00;102824.13;4987715;28;20034;-77
2022/01/17 04:00:18;;;;;;;311.60;65.32;;;;;;;4.19;100.00;102804.34;4992580;28;20137;-77
2022/01/17 04:02:43;;;;;;;316.20;62.88;;;;;;;4.16;100.00;102808.94;4993114;28;20030;-77
2022/01/17 04:05:09;;;;;;;312.92;61.30;;;;;;;4.16;100.00;102804.41;4999074;28;20484;-77
2022/01/17 04:07:35;;;;;;;312.50;60.33;;;;;;;4.14;100.00;102806.28;4994317;28;20045;-77
2022/01/17 04:10:00;;;;;;;299.45;62.00;;;;;;;4.09;100.00;102800.06;5008838;28;20053;-77
2022/01/17 04:12:29;;;;;;;281.83;57.13;;;;;;;3.96;100.00;102807.53;4999976;28;20042;-78
2022/01/17 04:14:55;;;;;;;314.02;62.70;;;;;;;3.95;100.00;102818.41;4998531;28;20043;-77
2022/01/17 04:17:28;;;;;;;290.55;60.83;;;;;;;3.93;100.00;102833.81;4993957;28;20088;-77
2022/01/17 04:20:04;;;;;;;284.38;57.17;;;;;;;3.82;100.00;102834.91;4998143;28;20029;-78
2022/01/17 04:22:33;;;;;;;284.15;58.03;;;;;;;3.81;100.00;102843.94;4979226;28;20390;-77
2022/01/17 04:24:58;;;;;;;295.88;62.53;;;;;;;3.77;100.00;102839.53;4996344;28;20117;-77
2022/01/17 04:27:24;;;;;;;264.70;56.20;;;;;;;3.72;100.00;102837.81;4985307;28;20114;-77
2022/01/17 04:29:49;;;;;;;293.38;58.28;;;;;;;3.73;100.00;102845.03;5012854;28;20434;-77
2022/01/17 04:32:15;;;;;;;290.15;57.72;;;;;;;3.73;100.00;102851.31;4991242;28;20038;-77
2022/01/17 04:34:40;;;;;;;294.92;58.88;;;;;;;3.68;100.00;102845.09;5010013;28;20039;-77
2022/01/17 04:37:07;;;;;;;292.88;59.78;;;;;;;3.70;100.00;102839.66;4995974;28;20026;-78
2022/01/17 04:39:33;;;;;;;270.38;56.70;;;;;;;3.68;100.00;102827.03;4999789;28;20084;-78
2022/01/17 04:41:58;;;;;;;291.48;58.20;;;;;;;3.74;100.00;102833.25;4984934;28;20086;-78
2022/01/17 04:47:08;;;;;;;249.18;53.72;;;;;;;3.66;100.00;102828.88;5005685;28;20045;-78
2022/01/17 04:49:33;;;;;;;270.63;53.13;;;;;;;3.62;100.00;102818.13;5023713;28;20018;-78
2022/01/17 04:51:59;;;;;;;240.85;52.45;;;;;;;3.58;100.00;102820.00;4995346;28;20060;-78
2022/01/17 04:54:44;;;;;;;232.13;53.75;;;;;;;3.59;100.00;102834.41;5001896;28;20026;-78
2022/01/17 04:57:12;;;;;;;247.68;51.78;;;;;;;3.53;100.00;102818.31;4984302;28;20029;-78
2022/01/17 04:59:41;;;;;;;220.65;49.28;;;;;;;3.60;100.00;102823.56;5006742;28;20026;-78
2022/01/17 05:02:07;;;;;;;236.95;49.38;;;;;;;3.58;100.00;102841.66;5003136;28;20030;-78
2022/01/17 05:04:33;;;;;;;227.00;48.72;;;;;;;3.55;100.00;102840.81;5018948;28;20112;-78
2022/01/17 05:06:58;;;;;;;205.25;45.63;;;;;;;3.49;100.00;102869.81;4983172;28;20501;-77
2022/01/17 05:09:24;;;;;;;204.68;46.83;;;;;;;3.50;100.00;102862.56;5010669;28;20038;-76
2022/01/17 05:11:49;;;;;;;198.30;47.17;;;;;;;3.63;100.00;102868.69;4972093;28;20065;-77
2022/01/17 05:14:15;;;;;;;209.00;46.65;;;;;;;3.63;100.00;102874.97;4987344;28;20784;-77
2022/01/17 05:16:47;;;;;;;191.48;43.70;;;;;;;3.64;100.00;102868.66;4993518;28;20514;-77
2022/01/17 05:21:57;;;;;;;206.18;46.47;;;;;;;3.58;100.00;102885.00;4990459;28;20042;-77
2022/01/17 05:24:22;;;;;;;185.23;45.42;;;;;;;3.70;100.00;102892.00;4979214;28;20038;-77
2022/01/17 05:26:48;;;;;;;197.65;45.63;;;;;;;3.72;100.00;102883.88;5007292;28;20030;-77
2022/01/17 05:29:13;;;;;;;215.82;45.67;;;;;;;3.72;100.00;102873.91;4988975;28;20037;-77
2022/01/17 05:31:39;;;;;;;188.07;43.72;;;;;;;3.75;100.00;102876.56;4989856;28;20040;-77
2022/01/17 05:34:04;;;;;;;181.43;44.72;;;;;;;3.71;100.00;102866.72;4990821;28;20038;-77
2022/01/17 05:36:30;;;;;;;176.77;45.50;;;;;;;3.73;100.00;102873.00;5006792;28;20022;-77
2022/01/17 05:38:55;;;;;;;175.95;41.25;;;;;;;3.74;100.00;102874.78;5006356;28;20046;-77
2022/01/17 05:41:21;;;;;;;192.00;42.55;;;;;;;3.75;100.00;102881.09;4992324;28;20035;-76
2022/01/17 05:43:46;;;;;;;192.88;42.65;;;;;;;3.78;100.00;102884.66;4998119;28;20034;-77
2022/01/17 05:46:12;;;;;;;174.95;44.67;;;;;;;3.78;100.00;102887.34;4977634;28;20027;-77
2022/01/17 05:48:37;;;;;;;215.75;44.83;;;;;;;3.83;100.00;102884.56;4987089;28;20104;-77
2022/01/17 05:51:03;;;;;;;176.68;40.58;;;;;;;3.80;100.00;102876.50;4997858;28;20023;-77
2022/01/17 05:53:29;;;;;;;172.45;42.92;;;;;;;3.80;100.00;102873.78;4984244;28;20049;-76
2022/01/17 05:55:55;;;;;;;176.55;41.33;;;;;;;3.82;100.00;102869.22;4978446;28;20057;-77
2022/01/17 05:58:20;;;;;;;160.32;41.88;;;;;;;3.84;100.00;102875.53;4990119;28;20130;-77
2022/01/17 06:00:46;;;;;;;169.35;41.33;;;;;;;3.79;100.00;102870.19;4983663;28;20026;-77
2022/01/17 06:03:11;;;;;;;154.90;40.85;;;;;;;3.73;100.00;102881.13;4992548;28;20046;-77
2022/01/17 06:05:36;;;;;;;150.18;38.53;;;;;;;3.68;100.00;102878.50;4992450;28;20482;-76
2022/01/17 06:08:02;;;;;;;164.10;41.53;;;;;;;3.63;100.00;102876.78;4983900;28;20126;-76
2022/01/17 06:10:28;;;;;;;151.13;38.25;;;;;;;3.67;100.00;102878.50;4976873;28;20035;-75
2022/01/17 06:12:53;;;;;;;161.32;41.42;;;;;;;3.56;100.00;102869.69;4990861;28;20042;-76
2022/01/17 06:15:19;;;;;;;176.20;41.85;;;;;;;3.53;100.00;102883.31;4980808;28;20339;-76
2022/01/17 06:17:45;;;;;;;166.50;39.42;;;;;;;3.57;100.00;102891.31;4997640;28;20092;-78
2022/01/17 06:20:11;;;;;;;166.70;39.65;;;;;;;3.53;100.00;102891.44;5007777;28;20030;-76
2022/01/17 06:22:37;;;;;;;150.10;40.17;;;;;;;3.49;100.00;102885.13;4974577;28;20030;-77
2022/01/17 06:25:03;;;;;;;171.93;39.20;;;;;;;3.47;100.00;102887.88;4986053;28;20037;-77
2022/01/17 06:27:29;;;;;;;165.60;39.85;;;;;;;3.55;100.00;102895.00;5004512;28;20078;-76
2022/01/17 06:29:56;;;;;;;154.15;39.30;;;;;;;3.55;100.00;102897.72;4999144;28;20069;-76
2022/01/17 06:32:21;;;;;;;175.63;41.10;;;;;;;3.52;100.00;102895.94;4995459;28;20034;-77
2022/01/17 06:34:47;;;;;;;167.48;40.80;;;;;;;3.54;100.00;102887.78;4964253;28;20046;-76
2022/01/17 06:37:12;;;;;;;167.60;43.28;;;;;;;3.50;100.00;102887.81;4997215;28;20072;-77
2022/01/17 06:39:37;;;;;;;151.30;40.97;;;;;;;3.59;100.00;102884.09;4985108;28;20034;-77
2022/01/17 06:42:03;;;;;;;156.77;38.72;;;;;;;3.56;100.00;102891.34;4996001;28;20537;-77
2022/01/17 06:44:29;;;;;;;156.15;39.50;;;;;;;3.52;100.00;102901.34;4979129;28;20136;-77
2022/01/17 06:46:54;;;;;;;171.02;43.45;;;;;;;3.46;100.00;102909.56;4993309;28;20042;-77
2022/01/17 06:49:20;;;;;;;181.45;45.03;;;;;;;3.46;100.00;102899.66;4981493;28;20066;-77
2022/01/17 06:51:45;;;;;;;201.32;47.13;;;;;;;3.45;100.00;102905.09;4992788;28;20567;-77
2022/01/17 06:54:11;;;;;;;201.10;46.67;;;;;;;3.38;100.00;102901.59;4992421;28;20117;-77
2022/01/17 06:56:36;;;;;;;189.27;50.42;;;;;;;3.34;100.00;102912.47;4996816;28;20038;-77
2022/01/17 06:59:02;;;;;;;227.10;51.83;;;;;;;3.29;100.00;102926.97;4995445;28;20054;-78
2022/01/17 07:01:27;;;;;;;195.48;47.95;;;;;;;3.31;100.00;102929.66;5009525;28;20038;-78
2022/01/17 07:03:53;;;;;;;219.07;50.85;;;;;;;3.34;100.00;102940.44;4989989;28;20043;-77
2022/01/17 07:06:19;;;;;;;212.82;50.67;;;;;;;3.40;100.00;102943.06;5008888;28;20504;-77
2022/01/17 07:08:45;;;;;;;192.95;48.15;;;;;;;3.45;100.00;102952.00;4999783;28;20039;-77
2022/01/17 07:11:11;;;;;;;217.48;52.17;;;;;;;3.49;100.00;102986.25;4983686;28;20038;-77
2022/01/17 07:13:37;;;;;;;223.38;52.83;;;;;;;3.52;100.00;102970.88;4998858;28;20035;-78
2022/01/17 07:16:03;;;;;;;214.73;50.80;;;;;;;3.47;100.00;102955.56;4993889;28;20042;-77
2022/01/17 07:18:29;;;;;;;207.18;51.50;;;;;;;3.50;100.00;102941.09;4992572;28;20030;-77
2022/01/17 07:20:54;;;;;;;223.75;51.63;;;;;;;3.45;100.00;102943.88;5012259;28;20053;-78
2022/01/17 07:23:19;;;;;;;206.75;53.63;;;;;;;3.44;100.00;102933.06;4997785;28;20389;-77
2022/01/17 07:25:45;;;;;;;202.10;52.28;;;;;;;3.39;100.00;102911.47;4989598;28;20072;-77
2022/01/17 07:28:13;;;;;;;193.52;49.70;;;;;;;3.35;100.00;102912.47;4976575;28;20022;-76
2022/01/17 07:30:38;;;;;;;214.00;53.85;;;;;;;3.36;100.00;102900.72;4983613;28;20385;-77
2022/01/17 07:33:05;;;;;;;232.25;55.25;;;;;;;3.33;100.00;102921.50;5003790;28;20038;-77
2022/01/17 07:35:31;;;;;;;214.50;52.50;;;;;;;3.41;100.00;102927.69;5003261;28;20049;-77
2022/01/17 07:37:56;;;;;;;210.50;53.15;;;;;;;3.37;100.00;102939.50;4998291;28;20033;-77
2022/01/17 07:40:22;;;;;;;206.95;53.42;;;;;;;3.31;100.00;102935.06;4986559;28;20114;-77
2022/01/17 07:42:47;;;;;;;238.50;56.90;;;;;;;3.29;100.00;102943.19;4998087;28;20038;-77
2022/01/17 07:45:15;;;;;;;213.98;57.83;;;;;;;3.28;100.00;102933.31;4992667;28;20303;-76
2022/01/17 07:47:45;;;;;;;246.00;59.42;;;;;;;3.34;100.00;102937.72;4993412;28;20046;-77
2022/01/17 07:50:15;;;;;;;216.27;56.05;;;;;;;3.29;100.00;102935.09;4978147;28;20189;-77
2022/01/17 07:52:41;;;;;;;233.63;57.70;;;;;;;3.30;100.00;102942.31;4994130;28;20034;-76
2022/01/17 07:55:07;;;;;;;220.25;56.38;;;;;;;3.26;100.00;102936.94;5004470;28;20037;-77
2022/01/17 07:57:33;;;;;;;267.58;60.03;;;;;;;3.28;100.00;102945.94;4998696;28;20058;-77
2022/01/17 07:59:58;;;;;;;254.70;59.83;;;;;;;3.24;100.00;102953.22;4999334;28;20473;-78
2022/01/17 08:02:24;;;;;;;248.20;59.75;;;;;;;3.29;100.00;102964.88;5018102;28;20034;-77
2022/01/17 08:04:49;;;;;;;245.55;58.92;;;;;;;3.27;100.00;102960.41;5000956;28;20042;-77
2022/01/17 08:07:15;;;;;;;231.90;59.35;;;;;;;3.32;100.00;102955.81;4993076;28;20026;-77
2022/01/17 08:09:41;;;;;;;261.77;62.80;;;;;;;3.38;100.00;102958.44;4993559;28;20069;-77
2022/01/17 08:12:10;;;;;;;235.65;60.58;;;;;;;3.39;100.00;102976.47;4992831;28;20385;-77
2022/01/17 08:14:36;;;;;;;220.90;58.20;;;;;;;3.44;100.00;102985.44;4991431;28;20125;-77
2022/01/17 08:17:02;;;;;;;252.55;59.95;;;;;;;3.52;100.00;102987.13;4976107;28;20381;-77
2022/01/17 08:19:28;;;;;;;254.20;62.00;;;;;;;3.55;100.00;102998.78;4994155;28;20035;-77
2022/01/17 08:21:53;;;;;;;231.95;55.08;;;;;;;3.66;100.00;102996.81;4985622;28;20023;-77
2022/01/17 08:24:20;;;;;;;233.23;60.95;;;;;;;3.70;100.00;102984.13;4978297;28;20026;-77
2022/01/17 08:26:46;;;;;;;227.07;56.47;;;;;;;3.86;100.00;102974.81;4982851;28;20129;-77
2022/01/17 08:29:18;;;;;;;207.13;57.38;;;;;;;3.89;100.00;102970.25;5063761;28;20535;-77
2022/01/17 08:31:46;;;;;;;235.75;59.33;;;;;;;3.96;100.00;102970.13;5052030;28;20047;-77
2022/01/17 08:34:17;;;;;;;229.60;57.97;;;;;;;4.01;100.00;102973.66;5035523;28;20029;-78
2022/01/17 08:36:43;;;;;;;222.45;57.78;;;;;;;4.15;100.00;102980.66;5054966;28;20436;-78
2022/01/17 08:39:10;;;;;;;233.45;56.65;;;;;;;4.23;100.00;102982.31;5055004;28;20059;-77
2022/01/17 08:41:42;;;;;;;232.23;56.17;;;;;;;4.21;100.00;102969.69;5047129;28;20044;-77
2022/01/17 08:44:12;;;;;;;211.50;57.60;;;;;;;4.27;100.00;102966.00;5053377;28;20033;-77
2022/01/17 08:46:40;;;;;;;209.30;55.15;;;;;;;4.35;100.00;102967.63;5051792;28;20077;-77
2022/01/17 08:49:05;;;;;;;203.63;51.72;;;;;;;4.50;100.00;102952.88;5031942;28;20084;-77
2022/01/17 08:51:31;;;;;;;208.40;53.00;;;;;;;4.54;100.00;102965.47;5050232;28;20029;-77
2022/01/17 08:53:56;;;;;;;185.48;50.38;;;;;;;4.54;100.00;102964.56;5052948;28;20490;-78
2022/01/17 08:56:22;;;;;;;184.98;48.88;;;;;;;4.51;100.00;102967.31;5050553;28;20049;-78
2022/01/17 08:58:47;;;;;;;186.73;51.55;;;;;;;4.62;100.00;102973.44;5059195;28;20727;-77
2022/01/17 09:01:14;;;;;;;170.57;46.17;;;;;;;4.64;100.00;102976.13;5046998;28;20037;-77
2022/01/17 09:03:40;;;;;;;166.18;44.08;;;;;;;4.72;100.00;102969.66;5048017;28;20033;-77
2022/01/17 09:06:06;;;;;;;179.75;42.08;;;;;;;4.75;100.00;102976.81;5034681;28;20021;-77
2022/01/17 09:08:32;;;;;;;167.93;43.30;;;;;;;4.78;100.00;102988.47;5052326;28;20524;-77
2022/01/17 09:10:58;;;;;;;168.50;41.85;;;;;;;4.85;100.00;102985.66;5031822;28;20035;-78
2022/01/17 09:13:25;;;;;;;145.73;37.58;;;;;;;4.89;100.00;102990.09;5043751;28;20044;-77
2022/01/17 09:15:52;;;;;;;141.98;39.40;;;;;;;4.94;100.00;102989.06;5052620;28;20068;-77
2022/01/17 09:18:19;;;;;;;138.23;39.15;;;;;;;4.97;100.00;103008.00;5048242;28;20564;-77
2022/01/17 09:20:45;;;;;;;160.55;41.30;;;;;;;4.97;100.00;103018.00;5023700;28;20060;-77
2022/01/17 09:23:11;;;;;;;148.93;38.30;;;;;;;4.93;100.00;103014.41;5038964;28;20446;-77
2022/01/17 09:25:37;;;;;;;139.98;38.28;;;;;;;5.06;100.00;103006.03;5056268;28;20100;-77
2022/01/17 09:28:03;;;;;;;133.70;37.88;;;;;;;5.06;100.00;103011.47;5028005;28;20042;-77
2022/01/17 09:30:29;;;;;;;132.35;38.28;;;;;;;5.09;100.00;103015.00;5046431;28;20053;-77
2022/01/17 09:32:55;;;;;;;132.63;39.80;;;;;;;5.09;100.00;103009.56;5044056;28;20056;-77
2022/01/17 09:35:21;;;;;;;126.63;35.92;;;;;;;5.21;100.00;103016.56;5046094;28;20493;-77
2022/01/17 09:37:46;;;;;;;114.65;34.17;;;;;;;5.23;100.00;103022.88;5046251;28;20069;-76
2022/01/17 09:40:12;;;;;;;123.65;32.72;;;;;;;5.36;100.00;103022.59;5036165;28;20052;-76
2022/01/17 09:42:38;;;;;;;107.57;31.58;;;;;;;5.43;100.00;103032.41;5014731;28;20125;-76
2022/01/17 09:45:07;;;;;;;98.13;30.02;;;;;;;5.38;100.00;103039.72;5030958;28;20046;-76
2022/01/17 09:47:34;;;;;;;120.55;33.30;;;;;;;5.38;100.00;103040.66;5028636;28;20042;-76
2022/01/17 09:50:01;;;;;;;118.93;31.77;;;;;;;5.29;100.00;103041.72;5025461;28;20468;-76
2022/01/17 09:52:34;;;;;;;118.47;32.45;;;;;;;5.30;100.00;103046.25;5017149;28;20378;-77
2022/01/17 09:55:25;;;;;;;110.63;30.38;;;;;;;5.40;100.00;103057.81;5032330;28;20116;-77
2022/01/17 09:58:02;;;;;;;117.95;30.67;;;;;;;5.34;100.00;103049.78;5033579;28;20407;-77
2022/01/17 10:00:30;;;;;;;107.45;28.30;;;;;;;5.36;100.00;103064.22;5024971;28;20041;-77
2022/01/17 10:02:59;;;;;;;82.55;26.50;;;;;;;5.47;100.00;103058.56;5031109;28;20127;-77
2022/01/17 10:05:27;;;;;;;120.25;28.13;;;;;;;5.41;100.00;103051.44;5035087;28;20488;-77
2022/01/17 10:08:09;;;;;;;112.43;27.17;;;;;;;5.34;100.00;103060.66;5031828;28;20044;-77
2022/01/17 10:10:50;;;;;;;122.35;27.75;;;;;;;5.36;100.00;103044.31;5037455;28;20427;-77
2022/01/17 10:13:25;;;;;;;106.57;26.90;;;;;;;5.49;100.00;103043.09;5032000;28;20397;-77
2022/01/17 10:16:09;;;;;;;93.30;25.80;;;;;;;5.42;100.00;103063.19;5014008;28;20535;-77
2022/01/17 10:18:41;;;;;;;113.22;26.23;;;;;;;5.57;100.00;103075.56;5024853;28;20018;-77
2022/01/17 10:21:38;;;;;;;102.78;24.95;;;;;;;5.42;100.00;103058.66;5034002;28;20030;-77
2022/01/17 10:29:40;;;;;;;104.97;23.80;;;;;;;5.48;100.00;103066.69;5032478;28;20080;-77
2022/01/17 10:35:20;;;;;;;101.25;24.95;;;;;;;5.58;100.00;103061.94;5031671;28;20088;-77
2022/01/17 10:38:07;;;;;;;94.13;20.25;;;;;;;5.65;100.00;103077.16;5016078;28;20079;-77
2022/01/17 10:40:49;;;;;;;111.05;24.38;;;;;;;5.60;100.00;103073.66;5036169;28;20443;-77
2022/01/17 10:43:46;;;;;;;94.22;23.58;;;;;;;5.53;100.00;103077.44;5016299;28;20089;-77
2022/01/17 10:46:13;;;;;;;84.63;19.95;;;;;;;5.79;100.00;103073.22;5017526;28;20037;-77
2022/01/17 10:48:47;;;;;;;70.95;20.45;;;;;;;5.71;100.00;103103.31;5035221;28;20026;-77
2022/01/17 10:51:14;;;;;;;77.78;20.98;;;;;;;5.69;100.00;103078.91;5032058;28;20428;-78
2022/01/17 10:53:40;;;;;;;71.63;21.05;;;;;;;5.72;100.00;103088.78;5034797;28;20076;-77
2022/01/17 10:56:09;;;;;;;82.88;21.38;;;;;;;5.72;100.00;103091.50;5032090;28;20030;-77
2022/01/17 10:58:37;;;;;;;72.45;19.02;;;;;;;5.83;100.00;103102.16;5032019;28;20026;-77
2022/01/17 11:01:16;;;;;;;67.88;17.73;;;;;;;5.83;100.00;103097.59;5032832;28;20061;-77
2022/01/17 11:03:44;;;;;;;86.03;19.58;;;;;;;5.85;100.00;103103.91;5019737;28;20122;-77
2022/01/17 11:06:13;;;;;;;91.15;19.45;;;;;;;5.84;100.00;103107.56;5042265;28;20037;-77
2022/01/17 11:08:41;;;;;;;81.63;18.70;;;;;;;5.84;100.00;103118.41;5035571;28;20109;-76
2022/01/17 11:11:08;;;;;;;83.57;17.13;;;;;;;5.97;100.00;103115.44;5018537;28;20068;-76
2022/01/17 11:13:38;;;;;;;70.32;18.83;;;;;;;5.97;100.00;103116.34;5005382;28;20169;-78
2022/01/17 11:16:11;;;;;;;82.72;17.60;;;;;;;5.98;100.00;103111.81;5029390;28;20044;-77
2022/01/17 11:18:40;;;;;;;90.93;17.80;;;;;;;6.09;100.00;103104.28;5029164;28;20032;-78
2022/01/17 11:21:14;;;;;;;77.45;16.65;;;;;;;6.00;100.00;103112.66;5008925;28;20121;-77
2022/01/17 11:23:49;;;;;;;58.35;16.55;;;;;;;6.00;100.00;103093.63;5022001;28;20057;-77
2022/01/17 11:26:15;;;;;;;72.45;17.13;;;;;;;6.19;100.00;103099.53;5027701;28;20049;-79
2022/01/17 11:28:42;;;;;;;82.07;16.98;;;;;;;6.10;100.00;103099.72;5036541;28;20037;-77